La Center, Washington
Current Conditions -  °F | °C
As of 2:33 AM on Thursday 23 Oct 2014 (Local Time) from KSPB Reporting Station
Overcast Overcast  
Wind Chill: 53°   Ceiling: 6500
Heat Index: 53°   Visibility: 10mi
Dew Point: 51°   Wind: 0mph
Humidity: 93%   Direction: NA
Pressure: 29.76"   Gusts: NA
Location:  45.86°N, 122.67°W
Report Text: KSPB 230933Z AUTO 00000KT 10SM SCT008 OVC065 12/11 A2976 RMK AO2 RAE08 P0000 T01170106
Loading
Personal Weather Stations






























Interactive Weather Map
Tropical Storm Tracking
New forecast layout! Learn more

10-Day Weather Forecast

Advertisements
Track Severe Weather on mobile